sensor_id;sensor_type;location;lat;lon;timestamp;temperature;humidity
1830;DHT22;914;48.118;11.600;2023-08-06T00:00:14;18.00;99.90
1830;DHT22;914;48.118;11.600;2023-08-06T00:02:39;17.90;99.90
1830;DHT22;914;48.118;11.600;2023-08-06T00:05:05;18.00;99.90
1830;DHT22;914;48.118;11.600;2023-08-06T00:07:31;17.90;99.90
1830;DHT22;914;48.118;11.600;2023-08-06T00:09:57;17.80;99.90
1830;DHT22;914;48.118;11.600;2023-08-06T00:12:23;17.70;99.90
1830;DHT22;914;48.118;11.600;2023-08-06T00:14:52;17.70;99.90
1830;DHT22;914;48.118;11.600;2023-08-06T00:17:18;17.60;99.90
1830;DHT22;914;48.118;11.600;2023-08-06T00:19:44;17.60;99.90
1830;DHT22;914;48.118;11.600;2023-08-06T00:22:10;17.50;99.90
1830;DHT22;914;48.118;11.600;2023-08-06T00:24:35;17.60;99.90
1830;DHT22;914;48.118;11.600;2023-08-06T00:27:02;17.70;99.90
1830;DHT22;914;48.118;11.600;2023-08-06T00:29:27;17.70;99.90
1830;DHT22;914;48.118;11.600;2023-08-06T00:31:53;17.30;99.90
1830;DHT22;914;48.118;11.600;2023-08-06T00:34:19;17.30;99.90
1830;DHT22;914;48.118;11.600;2023-08-06T00:36:44;17.20;99.90
1830;DHT22;914;48.118;11.600;2023-08-06T00:39:10;17.10;99.90
1830;DHT22;914;48.118;11.600;2023-08-06T00:41:36;17.00;99.90
1830;DHT22;914;48.118;11.600;2023-08-06T00:44:02;17.00;99.90
1830;DHT22;914;48.118;11.600;2023-08-06T00:46:27;17.00;99.90
1830;DHT22;914;48.118;11.600;2023-08-06T00:48:53;17.00;99.90
1830;DHT22;914;48.118;11.600;2023-08-06T00:51:21;16.80;99.90
1830;DHT22;914;48.118;11.600;2023-08-06T00:53:49;16.90;99.90
1830;DHT22;914;48.118;11.600;2023-08-06T00:56:15;16.90;99.90
1830;DHT22;914;48.118;11.600;2023-08-06T00:58:40;16.90;99.90
1830;DHT22;914;48.118;11.600;2023-08-06T01:01:06;16.90;99.90
1830;DHT22;914;48.118;11.600;2023-08-06T01:03:32;16.90;99.90
1830;DHT22;914;48.118;11.600;2023-08-06T01:05:57;16.90;99.90
1830;DHT22;914;48.118;11.600;2023-08-06T01:13:50;16.70;99.90
1830;DHT22;914;48.118;11.600;2023-08-06T01:16:20;16.70;99.90
1830;DHT22;914;48.118;11.600;2023-08-06T01:18:47;16.80;99.90
1830;DHT22;914;48.118;11.600;2023-08-06T01:21:18;16.80;99.90
1830;DHT22;914;48.118;11.600;2023-08-06T01:23:45;16.90;99.90
1830;DHT22;914;48.118;11.600;2023-08-06T01:26:30;17.00;99.90
1830;DHT22;914;48.118;11.600;2023-08-06T01:31:43;17.00;99.90
1830;DHT22;914;48.118;11.600;2023-08-06T01:34:16;16.90;99.90
1830;DHT22;914;48.118;11.600;2023-08-06T01:36:42;16.80;99.90
1830;DHT22;914;48.118;11.600;2023-08-06T01:39:08;17.00;99.90
1830;DHT22;914;48.118;11.600;2023-08-06T01:41:34;17.10;99.90
1830;DHT22;914;48.118;11.600;2023-08-06T01:43:59;17.00;99.90
1830;DHT22;914;48.118;11.600;2023-08-06T01:46:25;17.00;99.90
1830;DHT22;914;48.118;11.600;2023-08-06T01:48:51;16.90;99.90
1830;DHT22;914;48.118;11.600;2023-08-06T01:51:16;17.00;99.90
1830;DHT22;914;48.118;11.600;2023-08-06T01:53:42;17.20;99.90
1830;DHT22;914;48.118;11.600;2023-08-06T01:56:07;17.00;99.90
1830;DHT22;914;48.118;11.600;2023-08-06T01:58:33;16.90;99.90
1830;DHT22;914;48.118;11.600;2023-08-06T02:00:59;16.90;99.90
1830;DHT22;914;48.118;11.600;2023-08-06T02:03:24;16.60;99.90
1830;DHT22;914;48.118;11.600;2023-08-06T02:05:50;16.80;99.90
1830;DHT22;914;48.118;11.600;2023-08-06T02:08:15;16.70;99.90
1830;DHT22;914;48.118;11.600;2023-08-06T02:10:41;16.60;99.90
1830;DHT22;914;48.118;11.600;2023-08-06T02:13:07;16.40;99.90
1830;DHT22;914;48.118;11.600;2023-08-06T02:15:32;16.50;99.90
1830;DHT22;914;48.118;11.600;2023-08-06T02:17:58;16.50;99.90
1830;DHT22;914;48.118;11.600;2023-08-06T02:20:23;16.50;99.90
1830;DHT22;914;48.118;11.600;2023-08-06T02:22:49;16.50;99.90
1830;DHT22;914;48.118;11.600;2023-08-06T02:25:15;16.30;99.90
1830;DHT22;914;48.118;11.600;2023-08-06T02:27:40;16.40;99.90
1830;DHT22;914;48.118;11.600;2023-08-06T02:30:06;16.50;99.90
1830;DHT22;914;48.118;11.600;2023-08-06T02:32:32;16.50;99.90
1830;DHT22;914;48.118;11.600;2023-08-06T02:35:01;16.50;99.90
1830;DHT22;914;48.118;11.600;2023-08-06T02:37:27;16.30;99.90
1830;DHT22;914;48.118;11.600;2023-08-06T02:39:54;16.30;99.90
1830;DHT22;914;48.118;11.600;2023-08-06T02:42:19;16.30;99.90
1830;DHT22;914;48.118;11.600;2023-08-06T02:44:45;16.40;99.90
1830;DHT22;914;48.118;11.600;2023-08-06T02:47:10;16.30;99.90
1830;DHT22;914;48.118;11.600;2023-08-06T02:49:36;16.30;99.90
1830;DHT22;914;48.118;11.600;2023-08-06T02:52:01;16.30;99.90
1830;DHT22;914;48.118;11.600;2023-08-06T02:54:27;16.40;99.90
1830;DHT22;914;48.118;11.600;2023-08-06T02:56:53;16.40;99.90
1830;DHT22;914;48.118;11.600;2023-08-06T02:59:18;16.40;99.90
1830;DHT22;914;48.118;11.600;2023-08-06T03:01:44;16.40;99.90
1830;DHT22;914;48.118;11.600;2023-08-06T03:04:10;16.40;99.90
1830;DHT22;914;48.118;11.600;2023-08-06T03:06:36;16.40;99.90
1830;DHT22;914;48.118;11.600;2023-08-06T03:09:01;16.30;99.90
1830;DHT22;914;48.118;11.600;2023-08-06T03:11:27;16.20;99.90
1830;DHT22;914;48.118;11.600;2023-08-06T03:13:52;16.10;99.90
1830;DHT22;914;48.118;11.600;2023-08-06T03:16:18;16.20;99.90
1830;DHT22;914;48.118;11.600;2023-08-06T03:18:43;16.00;99.90
1830;DHT22;914;48.118;11.600;2023-08-06T03:21:09;15.90;99.90
1830;DHT22;914;48.118;11.600;2023-08-06T03:23:35;15.90;99.90
1830;DHT22;914;48.118;11.600;2023-08-06T03:26:03;15.90;99.90
1830;DHT22;914;48.118;11.600;2023-08-06T03:28:29;15.90;99.90
1830;DHT22;914;48.118;11.600;2023-08-06T03:31:04;15.90;99.90
1830;DHT22;914;48.118;11.600;2023-08-06T03:33:30;15.80;99.90
1830;DHT22;914;48.118;11.600;2023-08-06T03:35:55;16.00;99.90
1830;DHT22;914;48.118;11.600;2023-08-06T03:38:21;16.20;99.90
1830;DHT22;914;48.118;11.600;2023-08-06T03:40:49;16.30;99.90
1830;DHT22;914;48.118;11.600;2023-08-06T03:43:15;16.20;99.90
1830;DHT22;914;48.118;11.600;2023-08-06T03:45:41;16.20;99.90
1830;DHT22;914;48.118;11.600;2023-08-06T03:48:07;16.10;99.90
1830;DHT22;914;48.118;11.600;2023-08-06T03:50:32;16.10;99.90
1830;DHT22;914;48.118;11.600;2023-08-06T03:52:58;16.10;99.90
1830;DHT22;914;48.118;11.600;2023-08-06T03:55:24;16.00;99.90
1830;DHT22;914;48.118;11.600;2023-08-06T03:57:49;15.90;99.90
1830;DHT22;914;48.118;11.600;2023-08-06T04:00:15;16.10;99.90
1830;DHT22;914;48.118;11.600;2023-08-06T04:02:41;16.10;99.90
1830;DHT22;914;48.118;11.600;2023-08-06T04:05:07;16.20;99.90
1830;DHT22;914;48.118;11.600;2023-08-06T04:07:33;16.00;99.90
1830;DHT22;914;48.118;11.600;2023-08-06T04:10:00;16.10;99.90
1830;DHT22;914;48.118;11.600;2023-08-06T04:12:27;16.00;99.90
1830;DHT22;914;48.118;11.600;2023-08-06T04:14:53;16.00;99.90
1830;DHT22;914;48.118;11.600;2023-08-06T04:17:19;15.90;99.90
1830;DHT22;914;48.118;11.600;2023-08-06T04:19:47;16.00;99.90
1830;DHT22;914;48.118;11.600;2023-08-06T04:22:13;15.90;99.90
1830;DHT22;914;48.118;11.600;2023-08-06T04:24:39;16.00;99.90
1830;DHT22;914;48.118;11.600;2023-08-06T04:27:04;15.90;99.90
1830;DHT22;914;48.118;11.600;2023-08-06T04:29:30;15.80;99.90
1830;DHT22;914;48.118;11.600;2023-08-06T04:31:56;15.80;99.90
1830;DHT22;914;48.118;11.600;2023-08-06T04:34:21;15.90;99.90
1830;DHT22;914;48.118;11.600;2023-08-06T04:36:47;15.90;99.90
1830;DHT22;914;48.118;11.600;2023-08-06T04:39:12;16.10;99.90
1830;DHT22;914;48.118;11.600;2023-08-06T04:41:39;16.00;99.90
1830;DHT22;914;48.118;11.600;2023-08-06T04:44:04;16.00;99.90
1830;DHT22;914;48.118;11.600;2023-08-06T04:46:30;15.80;99.90
1830;DHT22;914;48.118;11.600;2023-08-06T04:48:55;15.90;99.90
1830;DHT22;914;48.118;11.600;2023-08-06T04:51:21;15.90;99.90
1830;DHT22;914;48.118;11.600;2023-08-06T04:53:47;15.90;99.90
1830;DHT22;914;48.118;11.600;2023-08-06T04:56:12;15.90;99.90
1830;DHT22;914;48.118;11.600;2023-08-06T04:58:38;16.30;99.90
1830;DHT22;914;48.118;11.600;2023-08-06T05:01:03;16.30;99.90
1830;DHT22;914;48.118;11.600;2023-08-06T05:03:29;16.30;99.90
1830;DHT22;914;48.118;11.600;2023-08-06T05:05:55;16.30;99.90
1830;DHT22;914;48.118;11.600;2023-08-06T05:08:20;16.40;99.90
1830;DHT22;914;48.118;11.600;2023-08-06T05:10:46;16.50;99.90
1830;DHT22;914;48.118;11.600;2023-08-06T05:13:12;16.60;99.90
1830;DHT22;914;48.118;11.600;2023-08-06T05:15:38;16.60;99.90
1830;DHT22;914;48.118;11.600;2023-08-06T05:18:05;16.60;99.90
1830;DHT22;914;48.118;11.600;2023-08-06T05:20:31;16.40;99.90
1830;DHT22;914;48.118;11.600;2023-08-06T05:22:56;16.40;99.90
1830;DHT22;914;48.118;11.600;2023-08-06T05:25:22;16.50;99.90
1830;DHT22;914;48.118;11.600;2023-08-06T05:27:47;16.50;99.90
1830;DHT22;914;48.118;11.600;2023-08-06T05:30:13;16.40;99.90
1830;DHT22;914;48.118;11.600;2023-08-06T05:32:39;16.60;99.90
1830;DHT22;914;48.118;11.600;2023-08-06T05:35:05;16.50;99.90
1830;DHT22;914;48.118;11.600;2023-08-06T05:37:31;16.40;99.90
1830;DHT22;914;48.118;11.600;2023-08-06T05:39:57;16.40;99.90
1830;DHT22;914;48.118;11.600;2023-08-06T05:42:22;16.50;99.90
1830;DHT22;914;48.118;11.600;2023-08-06T05:44:48;16.40;99.90
1830;DHT22;914;48.118;11.600;2023-08-06T05:47:13;16.40;99.90
1830;DHT22;914;48.118;11.600;2023-08-06T05:49:39;16.40;99.90
1830;DHT22;914;48.118;11.600;2023-08-06T05:52:05;16.50;99.90
1830;DHT22;914;48.118;11.600;2023-08-06T05:54:32;16.50;99.90
1830;DHT22;914;48.118;11.600;2023-08-06T05:56:57;16.60;99.90
1830;DHT22;914;48.118;11.600;2023-08-06T05:59:23;16.60;99.90
1830;DHT22;914;48.118;11.600;2023-08-06T06:01:48;16.80;99.90
1830;DHT22;914;48.118;11.600;2023-08-06T06:04:14;16.80;99.90
1830;DHT22;914;48.118;11.600;2023-08-06T06:06:39;16.90;99.90
1830;DHT22;914;48.118;11.600;2023-08-06T06:09:07;17.00;99.90
1830;DHT22;914;48.118;11.600;2023-08-06T06:11:32;17.10;99.90
1830;DHT22;914;48.118;11.600;2023-08-06T06:13:58;17.10;99.90
1830;DHT22;914;48.118;11.600;2023-08-06T06:16:24;17.20;99.90
1830;DHT22;914;48.118;11.600;2023-08-06T06:18:49;17.30;99.90
1830;DHT22;914;48.118;11.600;2023-08-06T06:21:15;17.20;99.90
1830;DHT22;914;48.118;11.600;2023-08-06T06:23:40;17.10;99.90
1830;DHT22;914;48.118;11.600;2023-08-06T06:26:06;17.20;99.90
1830;DHT22;914;48.118;11.600;2023-08-06T06:28:32;17.40;99.90
1830;DHT22;914;48.118;11.600;2023-08-06T06:31:01;17.30;99.90
1830;DHT22;914;48.118;11.600;2023-08-06T06:33:27;17.50;99.90
1830;DHT22;914;48.118;11.600;2023-08-06T06:35:53;17.60;99.90
1830;DHT22;914;48.118;11.600;2023-08-06T06:38:18;17.60;99.90
1830;DHT22;914;48.118;11.600;2023-08-06T06:40:46;17.70;99.90
1830;DHT22;914;48.118;11.600;2023-08-06T06:43:18;17.80;99.90
1830;DHT22;914;48.118;11.600;2023-08-06T06:45:43;17.80;99.90
1830;DHT22;914;48.118;11.600;2023-08-06T06:48:09;17.90;99.90
1830;DHT22;914;48.118;11.600;2023-08-06T06:50:35;18.00;99.90
1830;DHT22;914;48.118;11.600;2023-08-06T06:53:01;17.90;99.90
1830;DHT22;914;48.118;11.600;2023-08-06T06:55:27;17.80;99.90
1830;DHT22;914;48.118;11.600;2023-08-06T06:57:53;17.70;99.90
1830;DHT22;914;48.118;11.600;2023-08-06T07:00:18;18.00;99.90
1830;DHT22;914;48.118;11.600;2023-08-06T07:02:44;18.00;99.90
1830;DHT22;914;48.118;11.600;2023-08-06T07:05:10;17.90;99.90
1830;DHT22;914;48.118;11.600;2023-08-06T07:07:35;18.00;99.90
1830;DHT22;914;48.118;11.600;2023-08-06T07:10:03;18.20;99.90
1830;DHT22;914;48.118;11.600;2023-08-06T07:12:28;18.30;99.90
1830;DHT22;914;48.118;11.600;2023-08-06T07:14:54;18.60;99.90
1830;DHT22;914;48.118;11.600;2023-08-06T07:17:19;18.50;99.90
1830;DHT22;914;48.118;11.600;2023-08-06T07:19:45;18.70;99.90
1830;DHT22;914;48.118;11.600;2023-08-06T07:22:11;18.60;99.90
1830;DHT22;914;48.118;11.600;2023-08-06T07:24:36;18.20;99.90
1830;DHT22;914;48.118;11.600;2023-08-06T07:27:02;18.20;99.90
1830;DHT22;914;48.118;11.600;2023-08-06T07:29:28;18.10;99.90
1830;DHT22;914;48.118;11.600;2023-08-06T07:31:54;17.80;99.90
1830;DHT22;914;48.118;11.600;2023-08-06T07:34:21;17.80;99.90
1830;DHT22;914;48.118;11.600;2023-08-06T07:36:46;18.00;99.90
1830;DHT22;914;48.118;11.600;2023-08-06T07:39:12;17.80;99.90
1830;DHT22;914;48.118;11.600;2023-08-06T07:41:38;17.90;99.90
1830;DHT22;914;48.118;11.600;2023-08-06T07:44:04;17.90;99.90
1830;DHT22;914;48.118;11.600;2023-08-06T07:46:30;17.90;99.90
1830;DHT22;914;48.118;11.600;2023-08-06T07:48:55;17.80;99.90
1830;DHT22;914;48.118;11.600;2023-08-06T07:51:21;17.70;99.90
1830;DHT22;914;48.118;11.600;2023-08-06T07:53:46;17.80;99.90
1830;DHT22;914;48.118;11.600;2023-08-06T07:56:12;17.70;99.90
1830;DHT22;914;48.118;11.600;2023-08-06T07:58:38;17.90;99.90
1830;DHT22;914;48.118;11.600;2023-08-06T08:01:03;18.00;99.90
1830;DHT22;914;48.118;11.600;2023-08-06T08:03:31;18.10;99.90
1830;DHT22;914;48.118;11.600;2023-08-06T08:05:56;17.90;99.90
1830;DHT22;914;48.118;11.600;2023-08-06T08:08:23;18.20;99.90
1830;DHT22;914;48.118;11.600;2023-08-06T08:10:49;18.30;99.90
1830;DHT22;914;48.118;11.600;2023-08-06T08:13:14;18.10;99.90
1830;DHT22;914;48.118;11.600;2023-08-06T08:15:40;18.30;99.90
1830;DHT22;914;48.118;11.600;2023-08-06T08:18:05;18.40;99.90
1830;DHT22;914;48.118;11.600;2023-08-06T08:20:31;18.70;99.90
1830;DHT22;914;48.118;11.600;2023-08-06T08:23:01;18.60;99.90
1830;DHT22;914;48.118;11.600;2023-08-06T08:25:28;18.60;99.90
1830;DHT22;914;48.118;11.600;2023-08-06T08:27:54;19.00;99.90
1830;DHT22;914;48.118;11.600;2023-08-06T08:30:21;18.90;99.90
1830;DHT22;914;48.118;11.600;2023-08-06T08:32:47;19.10;99.90
1830;DHT22;914;48.118;11.600;2023-08-06T08:35:13;18.70;99.90
1830;DHT22;914;48.118;11.600;2023-08-06T08:37:39;18.80;99.90
1830;DHT22;914;48.118;11.600;2023-08-06T08:40:06;18.90;99.90
1830;DHT22;914;48.118;11.600;2023-08-06T08:42:32;18.80;99.90
1830;DHT22;914;48.118;11.600;2023-08-06T08:44:58;18.80;99.90
1830;DHT22;914;48.118;11.600;2023-08-06T08:47:24;18.50;99.90
1830;DHT22;914;48.118;11.600;2023-08-06T08:49:53;18.40;99.90
1830;DHT22;914;48.118;11.600;2023-08-06T08:52:20;18.40;99.90
1830;DHT22;914;48.118;11.600;2023-08-06T08:54:47;18.70;99.90
1830;DHT22;914;48.118;11.600;2023-08-06T08:57:17;18.90;99.90
1830;DHT22;914;48.118;11.600;2023-08-06T08:59:43;18.80;99.90
1830;DHT22;914;48.118;11.600;2023-08-06T09:02:11;18.40;99.90
1830;DHT22;914;48.118;11.600;2023-08-06T09:04:39;18.20;99.90
1830;DHT22;914;48.118;11.600;2023-08-06T09:07:05;18.30;99.90
1830;DHT22;914;48.118;11.600;2023-08-06T09:09:34;18.40;99.90
1830;DHT22;914;48.118;11.600;2023-08-06T09:12:13;18.70;99.90
1830;DHT22;914;48.118;11.600;2023-08-06T09:14:40;18.90;99.90
1830;DHT22;914;48.118;11.600;2023-08-06T09:17:06;18.40;99.90
1830;DHT22;914;48.118;11.600;2023-08-06T09:19:32;18.30;99.90
1830;DHT22;914;48.118;11.600;2023-08-06T09:21:58;18.10;99.90
1830;DHT22;914;48.118;11.600;2023-08-06T09:24:24;17.70;99.90
1830;DHT22;914;48.118;11.600;2023-08-06T09:26:51;18.10;99.90
1830;DHT22;914;48.118;11.600;2023-08-06T09:29:17;18.30;99.90
1830;DHT22;914;48.118;11.600;2023-08-06T09:31:45;18.00;99.90
1830;DHT22;914;48.118;11.600;2023-08-06T09:34:15;18.00;99.90
1830;DHT22;914;48.118;11.600;2023-08-06T09:37:08;17.90;99.90
1830;DHT22;914;48.118;11.600;2023-08-06T09:39:34;18.30;99.90
1830;DHT22;914;48.118;11.600;2023-08-06T09:42:01;17.90;99.90
1830;DHT22;914;48.118;11.600;2023-08-06T09:44:28;18.00;99.90
1830;DHT22;914;48.118;11.600;2023-08-06T09:47:02;18.30;99.90
1830;DHT22;914;48.118;11.600;2023-08-06T09:52:00;18.10;99.90
1830;DHT22;914;48.118;11.600;2023-08-06T09:54:27;18.20;99.90
1830;DHT22;914;48.118;11.600;2023-08-06T09:56:57;18.30;99.90
1830;DHT22;914;48.118;11.600;2023-08-06T09:59:23;18.10;99.90
1830;DHT22;914;48.118;11.600;2023-08-06T10:01:49;18.00;99.90
1830;DHT22;914;48.118;11.600;2023-08-06T10:04:15;18.10;99.90
1830;DHT22;914;48.118;11.600;2023-08-06T10:06:43;18.10;99.90
1830;DHT22;914;48.118;11.600;2023-08-06T10:09:11;18.00;99.90
1830;DHT22;914;48.118;11.600;2023-08-06T10:11:37;18.00;99.90
1830;DHT22;914;48.118;11.600;2023-08-06T10:14:30;18.00;99.90
1830;DHT22;914;48.118;11.600;2023-08-06T10:16:55;17.80;99.90
1830;DHT22;914;48.118;11.600;2023-08-06T10:19:22;17.70;99.90
1830;DHT22;914;48.118;11.600;2023-08-06T10:22:16;17.60;99.90
1830;DHT22;914;48.118;11.600;2023-08-06T10:24:53;17.70;99.90
1830;DHT22;914;48.118;11.600;2023-08-06T10:27:30;17.80;99.90
1830;DHT22;914;48.118;11.600;2023-08-06T10:30:26;18.20;99.90
1830;DHT22;914;48.118;11.600;2023-08-06T10:32:53;18.20;99.90
1830;DHT22;914;48.118;11.600;2023-08-06T10:35:40;18.20;99.90
1830;DHT22;914;48.118;11.600;2023-08-06T10:38:22;18.40;99.90
1830;DHT22;914;48.118;11.600;2023-08-06T10:45:56;18.50;99.90
1830;DHT22;914;48.118;11.600;2023-08-06T10:51:08;18.50;99.90
1830;DHT22;914;48.118;11.600;2023-08-06T10:53:34;18.60;99.90
1830;DHT22;914;48.118;11.600;2023-08-06T10:56:17;18.30;99.90
1830;DHT22;914;48.118;11.600;2023-08-06T10:58:44;18.80;99.90
1830;DHT22;914;48.118;11.600;2023-08-06T11:01:11;18.90;99.90
1830;DHT22;914;48.118;11.600;2023-08-06T11:03:37;18.40;99.90
1830;DHT22;914;48.118;11.600;2023-08-06T11:06:04;18.60;99.90
1830;DHT22;914;48.118;11.600;2023-08-06T11:08:35;18.70;99.90
1830;DHT22;914;48.118;11.600;2023-08-06T11:11:11;18.80;99.90
1830;DHT22;914;48.118;11.600;2023-08-06T11:13:42;19.10;99.90
1830;DHT22;914;48.118;11.600;2023-08-06T11:16:11;18.50;99.90
1830;DHT22;914;48.118;11.600;2023-08-06T11:18:37;18.60;99.90
1830;DHT22;914;48.118;11.600;2023-08-06T11:21:03;19.20;99.90
1830;DHT22;914;48.118;11.600;2023-08-06T11:23:29;18.70;99.90
1830;DHT22;914;48.118;11.600;2023-08-06T11:25:56;18.60;99.90
1830;DHT22;914;48.118;11.600;2023-08-06T11:28:22;18.40;99.90
1830;DHT22;914;48.118;11.600;2023-08-06T11:30:48;18.10;99.90
1830;DHT22;914;48.118;11.600;2023-08-06T11:33:14;18.30;99.90
1830;DHT22;914;48.118;11.600;2023-08-06T11:35:40;18.30;99.90
1830;DHT22;914;48.118;11.600;2023-08-06T11:38:06;18.00;99.90
1830;DHT22;914;48.118;11.600;2023-08-06T11:40:32;18.30;99.90
1830;DHT22;914;48.118;11.600;2023-08-06T11:42:58;18.10;99.90
1830;DHT22;914;48.118;11.600;2023-08-06T11:45:24;18.10;99.90
1830;DHT22;914;48.118;11.600;2023-08-06T11:47:51;18.30;99.90
1830;DHT22;914;48.118;11.600;2023-08-06T11:50:26;18.60;99.90
1830;DHT22;914;48.118;11.600;2023-08-06T11:52:58;18.80;99.90
1830;DHT22;914;48.118;11.600;2023-08-06T11:55:25;18.90;99.90
1830;DHT22;914;48.118;11.600;2023-08-06T11:57:51;19.30;99.90
1830;DHT22;914;48.118;11.600;2023-08-06T12:00:17;19.30;99.90
1830;DHT22;914;48.118;11.600;2023-08-06T12:02:46;19.20;99.90
1830;DHT22;914;48.118;11.600;2023-08-06T12:05:16;19.10;99.90
1830;DHT22;914;48.118;11.600;2023-08-06T12:07:48;18.90;99.90
1830;DHT22;914;48.118;11.600;2023-08-06T12:10:16;18.70;99.90
1830;DHT22;914;48.118;11.600;2023-08-06T12:12:42;18.70;99.90
1830;DHT22;914;48.118;11.600;2023-08-06T12:15:08;18.70;99.90
1830;DHT22;914;48.118;11.600;2023-08-06T12:17:35;18.70;99.90
1830;DHT22;914;48.118;11.600;2023-08-06T12:20:03;18.70;99.90
1830;DHT22;914;48.118;11.600;2023-08-06T12:22:30;18.60;99.90
1830;DHT22;914;48.118;11.600;2023-08-06T12:25:07;18.50;99.90
1830;DHT22;914;48.118;11.600;2023-08-06T12:27:37;18.30;99.90
1830;DHT22;914;48.118;11.600;2023-08-06T12:30:05;18.20;99.90
1830;DHT22;914;48.118;11.600;2023-08-06T12:32:31;18.50;99.90
1830;DHT22;914;48.118;11.600;2023-08-06T12:34:56;18.30;99.90
1830;DHT22;914;48.118;11.600;2023-08-06T12:37:23;18.20;99.90
1830;DHT22;914;48.118;11.600;2023-08-06T12:39:49;18.20;99.90
1830;DHT22;914;48.118;11.600;2023-08-06T12:42:15;18.00;99.90
1830;DHT22;914;48.118;11.600;2023-08-06T12:44:40;18.20;99.90
1830;DHT22;914;48.118;11.600;2023-08-06T12:47:09;18.20;99.90
1830;DHT22;914;48.118;11.600;2023-08-06T12:49:35;18.20;99.90
1830;DHT22;914;48.118;11.600;2023-08-06T12:52:01;18.00;99.90
1830;DHT22;914;48.118;11.600;2023-08-06T12:54:28;18.10;99.90
1830;DHT22;914;48.118;11.600;2023-08-06T12:56:54;17.70;99.90
1830;DHT22;914;48.118;11.600;2023-08-06T12:59:20;17.80;99.90
1830;DHT22;914;48.118;11.600;2023-08-06T13:01:46;17.70;99.90
1830;DHT22;914;48.118;11.600;2023-08-06T13:04:12;18.00;99.90
1830;DHT22;914;48.118;11.600;2023-08-06T13:06:38;18.10;99.90
1830;DHT22;914;48.118;11.600;2023-08-06T13:09:11;18.10;99.90
1830;DHT22;914;48.118;11.600;2023-08-06T13:11:38;18.50;99.90
1830;DHT22;914;48.118;11.600;2023-08-06T13:14:14;18.90;99.90
1830;DHT22;914;48.118;11.600;2023-08-06T13:16:41;18.80;99.90
1830;DHT22;914;48.118;11.600;2023-08-06T13:19:07;19.70;99.90
1830;DHT22;914;48.118;11.600;2023-08-06T13:24:15;20.10;99.90
1830;DHT22;914;48.118;11.600;2023-08-06T13:26:41;20.10;99.90
1830;DHT22;914;48.118;11.600;2023-08-06T13:29:06;19.90;99.90
1830;DHT22;914;48.118;11.600;2023-08-06T13:31:32;18.90;99.90
1830;DHT22;914;48.118;11.600;2023-08-06T13:33:58;18.20;99.90
1830;DHT22;914;48.118;11.600;2023-08-06T13:36:25;17.90;99.90
1830;DHT22;914;48.118;11.600;2023-08-06T13:38:51;17.60;99.90
1830;DHT22;914;48.118;11.600;2023-08-06T13:41:17;17.60;99.90
1830;DHT22;914;48.118;11.600;2023-08-06T13:43:42;17.80;99.90
1830;DHT22;914;48.118;11.600;2023-08-06T13:46:09;17.90;99.90
1830;DHT22;914;48.118;11.600;2023-08-06T13:48:39;18.40;99.90
1830;DHT22;914;48.118;11.600;2023-08-06T13:51:04;18.50;99.90
1830;DHT22;914;48.118;11.600;2023-08-06T13:53:30;18.10;99.90
1830;DHT22;914;48.118;11.600;2023-08-06T13:55:56;17.80;99.90
1830;DHT22;914;48.118;11.600;2023-08-06T13:58:23;17.70;99.90
1830;DHT22;914;48.118;11.600;2023-08-06T14:00:49;17.60;99.90
1830;DHT22;914;48.118;11.600;2023-08-06T14:03:14;17.50;99.90
1830;DHT22;914;48.118;11.600;2023-08-06T14:05:41;17.30;99.90
1830;DHT22;914;48.118;11.600;2023-08-06T14:08:06;17.20;99.90
1830;DHT22;914;48.118;11.600;2023-08-06T14:10:32;17.00;99.90
1830;DHT22;914;48.118;11.600;2023-08-06T14:12:58;16.90;99.90
1830;DHT22;914;48.118;11.600;2023-08-06T14:15:23;16.70;99.90
1830;DHT22;914;48.118;11.600;2023-08-06T14:17:49;16.70;99.90
1830;DHT22;914;48.118;11.600;2023-08-06T14:20:14;16.60;99.90
1830;DHT22;914;48.118;11.600;2023-08-06T14:22:40;16.70;99.90
1830;DHT22;914;48.118;11.600;2023-08-06T14:25:06;16.60;99.90
1830;DHT22;914;48.118;11.600;2023-08-06T14:27:32;16.80;99.90
1830;DHT22;914;48.118;11.600;2023-08-06T14:29:57;16.70;99.90
1830;DHT22;914;48.118;11.600;2023-08-06T14:32:23;16.50;99.90
1830;DHT22;914;48.118;11.600;2023-08-06T14:34:48;16.60;99.90
1830;DHT22;914;48.118;11.600;2023-08-06T14:37:14;16.50;99.90
1830;DHT22;914;48.118;11.600;2023-08-06T14:39:40;16.30;99.90
1830;DHT22;914;48.118;11.600;2023-08-06T14:42:06;16.20;99.90
1830;DHT22;914;48.118;11.600;2023-08-06T14:44:32;16.10;99.90
1830;DHT22;914;48.118;11.600;2023-08-06T14:46:57;16.00;99.90
1830;DHT22;914;48.118;11.600;2023-08-06T14:49:23;16.10;99.90
1830;DHT22;914;48.118;11.600;2023-08-06T14:51:50;16.10;99.90
1830;DHT22;914;48.118;11.600;2023-08-06T14:54:16;16.10;99.90
1830;DHT22;914;48.118;11.600;2023-08-06T14:56:41;16.30;99.90
1830;DHT22;914;48.118;11.600;2023-08-06T14:59:07;16.30;99.90
1830;DHT22;914;48.118;11.600;2023-08-06T15:01:32;16.20;99.90
1830;DHT22;914;48.118;11.600;2023-08-06T15:03:58;15.90;99.90
1830;DHT22;914;48.118;11.600;2023-08-06T15:06:24;15.90;99.90
1830;DHT22;914;48.118;11.600;2023-08-06T15:08:50;15.70;99.90
1830;DHT22;914;48.118;11.600;2023-08-06T15:11:15;15.70;99.90
1830;DHT22;914;48.118;11.600;2023-08-06T15:13:41;15.80;99.90
1830;DHT22;914;48.118;11.600;2023-08-06T15:16:07;15.80;99.90
1830;DHT22;914;48.118;11.600;2023-08-06T15:18:32;15.70;99.90
1830;DHT22;914;48.118;11.600;2023-08-06T15:20:58;15.90;99.90
1830;DHT22;914;48.118;11.600;2023-08-06T15:23:24;15.80;99.90
1830;DHT22;914;48.118;11.600;2023-08-06T15:25:50;15.90;99.90
1830;DHT22;914;48.118;11.600;2023-08-06T15:28:16;16.10;99.90
1830;DHT22;914;48.118;11.600;2023-08-06T15:30:51;16.10;99.90
1830;DHT22;914;48.118;11.600;2023-08-06T15:33:18;16.20;99.90
1830;DHT22;914;48.118;11.600;2023-08-06T15:35:44;16.20;99.90
1830;DHT22;914;48.118;11.600;2023-08-06T15:38:10;15.90;99.90
1830;DHT22;914;48.118;11.600;2023-08-06T15:40:35;15.80;99.90
1830;DHT22;914;48.118;11.600;2023-08-06T15:43:02;15.60;99.90
1830;DHT22;914;48.118;11.600;2023-08-06T15:45:28;15.50;99.90
1830;DHT22;914;48.118;11.600;2023-08-06T15:47:53;15.50;99.90
1830;DHT22;914;48.118;11.600;2023-08-06T15:50:19;15.60;99.90
1830;DHT22;914;48.118;11.600;2023-08-06T15:52:45;15.50;99.90
1830;DHT22;914;48.118;11.600;2023-08-06T15:55:10;15.50;99.90
1830;DHT22;914;48.118;11.600;2023-08-06T15:57:36;15.60;99.90
1830;DHT22;914;48.118;11.600;2023-08-06T16:00:03;15.50;99.90
1830;DHT22;914;48.118;11.600;2023-08-06T16:02:29;15.60;99.90
1830;DHT22;914;48.118;11.600;2023-08-06T16:04:55;15.90;99.90
1830;DHT22;914;48.118;11.600;2023-08-06T16:07:21;15.70;99.90
1830;DHT22;914;48.118;11.600;2023-08-06T16:09:52;15.80;99.90
1830;DHT22;914;48.118;11.600;2023-08-06T16:12:18;15.90;99.90
1830;DHT22;914;48.118;11.600;2023-08-06T16:14:49;15.90;99.90
1830;DHT22;914;48.118;11.600;2023-08-06T16:17:15;15.70;99.90
1830;DHT22;914;48.118;11.600;2023-08-06T16:19:41;15.60;99.90